sensor_id;sensor_type;location;lat;lon;timestamp;P1;durP1;ratioP1;P2;durP2;ratioP2
1649;SDS011;822;53.670;8.676;2022-10-01T00:01:00;2.30;;;2.10;;
1649;SDS011;822;53.670;8.676;2022-10-01T00:03:29;2.17;;;2.03;;
1649;SDS011;822;53.670;8.676;2022-10-01T00:05:59;2.47;;;2.27;;
1649;SDS011;822;53.670;8.676;2022-10-01T00:08:26;4.63;;;3.03;;
1649;SDS011;822;53.670;8.676;2022-10-01T00:10:53;2.83;;;2.63;;
1649;SDS011;822;53.670;8.676;2022-10-01T00:13:20;1.87;;;1.77;;
1649;SDS011;822;53.670;8.676;2022-10-01T00:15:47;1.80;;;1.70;;
1649;SDS011;822;53.670;8.676;2022-10-01T00:18:15;2.50;;;2.30;;
1649;SDS011;822;53.670;8.676;2022-10-01T00:20:42;2.87;;;2.57;;
1649;SDS011;822;53.670;8.676;2022-10-01T00:23:09;1.87;;;1.77;;
1649;SDS011;822;53.670;8.676;2022-10-01T00:25:36;2.57;;;2.43;;
1649;SDS011;822;53.670;8.676;2022-10-01T00:28:09;2.30;;;2.20;;
1649;SDS011;822;53.670;8.676;2022-10-01T00:30:36;2.73;;;2.10;;
1649;SDS011;822;53.670;8.676;2022-10-01T00:33:03;2.50;;;2.40;;
1649;SDS011;822;53.670;8.676;2022-10-01T00:35:38;2.03;;;1.93;;
1649;SDS011;822;53.670;8.676;2022-10-01T00:38:04;2.47;;;2.20;;
1649;SDS011;822;53.670;8.676;2022-10-01T00:40:31;2.33;;;2.17;;
1649;SDS011;822;53.670;8.676;2022-10-01T00:42:58;2.40;;;2.20;;
1649;SDS011;822;53.670;8.676;2022-10-01T00:45:24;1.93;;;1.83;;
1649;SDS011;822;53.670;8.676;2022-10-01T00:47:52;2.07;;;1.97;;
1649;SDS011;822;53.670;8.676;2022-10-01T00:50:23;1.90;;;1.80;;
1649;SDS011;822;53.670;8.676;2022-10-01T00:52:53;1.93;;;1.80;;
1649;SDS011;822;53.670;8.676;2022-10-01T00:55:22;1.70;;;1.60;;
1649;SDS011;822;53.670;8.676;2022-10-01T00:57:51;1.40;;;1.30;;
1649;SDS011;822;53.670;8.676;2022-10-01T01:00:19;1.43;;;1.40;;
1649;SDS011;822;53.670;8.676;2022-10-01T01:02:47;1.97;;;1.87;;
1649;SDS011;822;53.670;8.676;2022-10-01T01:05:13;1.47;;;1.37;;
1649;SDS011;822;53.670;8.676;2022-10-01T01:07:41;2.00;;;1.90;;
1649;SDS011;822;53.670;8.676;2022-10-01T01:10:11;1.90;;;1.80;;
1649;SDS011;822;53.670;8.676;2022-10-01T01:12:44;3.30;;;1.60;;
1649;SDS011;822;53.670;8.676;2022-10-01T01:15:17;1.80;;;1.70;;
1649;SDS011;822;53.670;8.676;2022-10-01T01:17:50;1.60;;;1.50;;
1649;SDS011;822;53.670;8.676;2022-10-01T01:26:31;0.97;;;0.97;;
1649;SDS011;822;53.670;8.676;2022-10-01T01:29:05;1.47;;;1.37;;
1649;SDS011;822;53.670;8.676;2022-10-01T01:31:35;1.43;;;1.33;;
1649;SDS011;822;53.670;8.676;2022-10-01T01:34:04;1.80;;;1.70;;
1649;SDS011;822;53.670;8.676;2022-10-01T01:36:36;2.30;;;2.10;;
1649;SDS011;822;53.670;8.676;2022-10-01T01:39:06;1.67;;;1.57;;
1649;SDS011;822;53.670;8.676;2022-10-01T01:41:36;2.10;;;2.00;;
1649;SDS011;822;53.670;8.676;2022-10-01T01:44:07;1.30;;;1.27;;
1649;SDS011;822;53.670;8.676;2022-10-01T01:46:37;1.60;;;1.50;;
1649;SDS011;822;53.670;8.676;2022-10-01T01:49:05;2.40;;;2.20;;
1649;SDS011;822;53.670;8.676;2022-10-01T01:51:34;1.77;;;1.67;;
1649;SDS011;822;53.670;8.676;2022-10-01T01:54:05;1.37;;;1.27;;
1649;SDS011;822;53.670;8.676;2022-10-01T01:56:32;1.83;;;1.73;;
1649;SDS011;822;53.670;8.676;2022-10-01T01:58:59;1.40;;;1.30;;
1649;SDS011;822;53.670;8.676;2022-10-01T02:01:33;1.50;;;1.40;;
1649;SDS011;822;53.670;8.676;2022-10-01T02:04:04;1.67;;;1.57;;
1649;SDS011;822;53.670;8.676;2022-10-01T02:06:37;1.20;;;1.10;;
1649;SDS011;822;53.670;8.676;2022-10-01T02:09:14;1.90;;;1.57;;
1649;SDS011;822;53.670;8.676;2022-10-01T02:11:49;1.67;;;1.57;;
1649;SDS011;822;53.670;8.676;2022-10-01T02:14:24;1.90;;;1.80;;
1649;SDS011;822;53.670;8.676;2022-10-01T02:16:58;2.20;;;1.80;;
1649;SDS011;822;53.670;8.676;2022-10-01T02:19:29;2.17;;;2.07;;
1649;SDS011;822;53.670;8.676;2022-10-01T02:21:59;1.67;;;1.57;;
1649;SDS011;822;53.670;8.676;2022-10-01T02:24:31;1.60;;;1.50;;
1649;SDS011;822;53.670;8.676;2022-10-01T02:27:00;3.43;;;2.40;;
1649;SDS011;822;53.670;8.676;2022-10-01T02:29:30;2.83;;;2.50;;
1649;SDS011;822;53.670;8.676;2022-10-01T02:31:59;2.30;;;2.10;;
1649;SDS011;822;53.670;8.676;2022-10-01T02:34:26;2.63;;;2.43;;
1649;SDS011;822;53.670;8.676;2022-10-01T02:36:56;2.10;;;2.00;;
1649;SDS011;822;53.670;8.676;2022-10-01T02:39:24;2.47;;;2.27;;
1649;SDS011;822;53.670;8.676;2022-10-01T02:41:53;3.43;;;2.00;;
1649;SDS011;822;53.670;8.676;2022-10-01T02:44:22;1.90;;;1.80;;
1649;SDS011;822;53.670;8.676;2022-10-01T02:46:52;2.33;;;2.13;;
1649;SDS011;822;53.670;8.676;2022-10-01T02:49:23;2.37;;;2.20;;
1649;SDS011;822;53.670;8.676;2022-10-01T02:51:52;2.00;;;1.90;;
1649;SDS011;822;53.670;8.676;2022-10-01T02:54:23;2.00;;;1.90;;
1649;SDS011;822;53.670;8.676;2022-10-01T02:56:53;2.30;;;2.20;;
1649;SDS011;822;53.670;8.676;2022-10-01T02:59:38;2.30;;;2.10;;
1649;SDS011;822;53.670;8.676;2022-10-01T03:02:05;2.10;;;2.00;;
1649;SDS011;822;53.670;8.676;2022-10-01T03:04:33;1.90;;;1.80;;
1649;SDS011;822;53.670;8.676;2022-10-01T03:06:59;2.73;;;2.27;;
1649;SDS011;822;53.670;8.676;2022-10-01T03:09:34;6.20;;;2.87;;
1649;SDS011;822;53.670;8.676;2022-10-01T03:12:02;3.17;;;2.63;;
1649;SDS011;822;53.670;8.676;2022-10-01T03:14:30;2.30;;;2.10;;
1649;SDS011;822;53.670;8.676;2022-10-01T03:16:58;2.40;;;2.30;;
1649;SDS011;822;53.670;8.676;2022-10-01T03:19:25;2.60;;;2.43;;
1649;SDS011;822;53.670;8.676;2022-10-01T03:21:53;2.40;;;2.20;;
1649;SDS011;822;53.670;8.676;2022-10-01T03:24:20;2.60;;;2.40;;
1649;SDS011;822;53.670;8.676;2022-10-01T03:26:47;2.03;;;1.93;;
1649;SDS011;822;53.670;8.676;2022-10-01T03:29:15;2.20;;;2.10;;
1649;SDS011;822;53.670;8.676;2022-10-01T03:31:42;2.10;;;2.00;;
1649;SDS011;822;53.670;8.676;2022-10-01T03:34:09;2.20;;;2.10;;
1649;SDS011;822;53.670;8.676;2022-10-01T03:36:37;2.43;;;2.23;;
1649;SDS011;822;53.670;8.676;2022-10-01T03:39:05;3.90;;;2.30;;
1649;SDS011;822;53.670;8.676;2022-10-01T03:41:32;3.70;;;2.83;;
1649;SDS011;822;53.670;8.676;2022-10-01T03:43:59;2.47;;;2.27;;
1649;SDS011;822;53.670;8.676;2022-10-01T03:46:29;2.80;;;2.60;;
1649;SDS011;822;53.670;8.676;2022-10-01T03:48:56;2.80;;;2.60;;
1649;SDS011;822;53.670;8.676;2022-10-01T03:51:25;2.90;;;2.70;;
1649;SDS011;822;53.670;8.676;2022-10-01T03:53:52;2.90;;;2.70;;
1649;SDS011;822;53.670;8.676;2022-10-01T03:56:20;2.83;;;2.63;;
1649;SDS011;822;53.670;8.676;2022-10-01T03:58:47;3.07;;;2.80;;
1649;SDS011;822;53.670;8.676;2022-10-01T04:01:14;3.37;;;3.10;;
1649;SDS011;822;53.670;8.676;2022-10-01T04:03:41;3.13;;;1.83;;
1649;SDS011;822;53.670;8.676;2022-10-01T04:06:08;2.47;;;2.17;;
1649;SDS011;822;53.670;8.676;2022-10-01T04:08:35;3.33;;;3.13;;
1649;SDS011;822;53.670;8.676;2022-10-01T04:11:02;2.43;;;2.23;;
1649;SDS011;822;53.670;8.676;2022-10-01T04:13:31;2.57;;;2.07;;
1649;SDS011;822;53.670;8.676;2022-10-01T04:16:01;2.77;;;2.50;;
1649;SDS011;822;53.670;8.676;2022-10-01T04:18:28;4.47;;;3.00;;
1649;SDS011;822;53.670;8.676;2022-10-01T04:20:55;2.20;;;2.10;;
1649;SDS011;822;53.670;8.676;2022-10-01T04:23:23;2.63;;;2.43;;
1649;SDS011;822;53.670;8.676;2022-10-01T04:25:52;5.37;;;3.20;;
1649;SDS011;822;53.670;8.676;2022-10-01T04:28:19;3.37;;;2.90;;
1649;SDS011;822;53.670;8.676;2022-10-01T04:30:47;3.13;;;2.73;;
1649;SDS011;822;53.670;8.676;2022-10-01T04:33:34;5.13;;;2.80;;
1649;SDS011;822;53.670;8.676;2022-10-01T04:36:01;2.20;;;2.10;;
1649;SDS011;822;53.670;8.676;2022-10-01T04:38:28;2.83;;;2.60;;
1649;SDS011;822;53.670;8.676;2022-10-01T04:40:55;2.03;;;1.93;;
1649;SDS011;822;53.670;8.676;2022-10-01T04:43:22;4.23;;;2.70;;
1649;SDS011;822;53.670;8.676;2022-10-01T04:45:50;3.77;;;2.97;;
1649;SDS011;822;53.670;8.676;2022-10-01T04:48:16;2.53;;;2.33;;
1649;SDS011;822;53.670;8.676;2022-10-01T04:50:43;2.97;;;2.67;;
1649;SDS011;822;53.670;8.676;2022-10-01T04:53:10;3.20;;;2.80;;
1649;SDS011;822;53.670;8.676;2022-10-01T04:55:37;3.63;;;2.33;;
1649;SDS011;822;53.670;8.676;2022-10-01T04:58:04;2.87;;;2.57;;
1649;SDS011;822;53.670;8.676;2022-10-01T05:00:30;2.20;;;2.00;;
1649;SDS011;822;53.670;8.676;2022-10-01T05:02:59;2.30;;;2.07;;
1649;SDS011;822;53.670;8.676;2022-10-01T05:05:26;2.60;;;2.40;;
1649;SDS011;822;53.670;8.676;2022-10-01T05:07:54;2.40;;;2.20;;
1649;SDS011;822;53.670;8.676;2022-10-01T05:10:21;2.27;;;2.07;;
1649;SDS011;822;53.670;8.676;2022-10-01T05:12:49;2.30;;;2.17;;
1649;SDS011;822;53.670;8.676;2022-10-01T05:15:17;2.33;;;2.13;;
1649;SDS011;822;53.670;8.676;2022-10-01T05:17:44;1.70;;;1.60;;
1649;SDS011;822;53.670;8.676;2022-10-01T05:20:15;2.03;;;1.93;;
1649;SDS011;822;53.670;8.676;2022-10-01T05:22:43;2.97;;;2.70;;
1649;SDS011;822;53.670;8.676;2022-10-01T05:25:11;2.80;;;2.20;;
1649;SDS011;822;53.670;8.676;2022-10-01T05:27:38;2.17;;;2.07;;
1649;SDS011;822;53.670;8.676;2022-10-01T05:30:05;2.67;;;2.43;;
1649;SDS011;822;53.670;8.676;2022-10-01T05:32:33;1.90;;;1.80;;
1649;SDS011;822;53.670;8.676;2022-10-01T05:35:00;1.83;;;1.47;;
1649;SDS011;822;53.670;8.676;2022-10-01T05:37:29;2.53;;;2.20;;
1649;SDS011;822;53.670;8.676;2022-10-01T05:39:56;5.30;;;2.57;;
1649;SDS011;822;53.670;8.676;2022-10-01T05:42:22;2.50;;;2.30;;
1649;SDS011;822;53.670;8.676;2022-10-01T05:44:49;2.47;;;2.27;;
1649;SDS011;822;53.670;8.676;2022-10-01T05:47:16;3.13;;;2.00;;
1649;SDS011;822;53.670;8.676;2022-10-01T05:49:44;3.73;;;2.20;;
1649;SDS011;822;53.670;8.676;2022-10-01T05:52:12;2.17;;;1.83;;
1649;SDS011;822;53.670;8.676;2022-10-01T05:54:41;1.73;;;1.63;;
1649;SDS011;822;53.670;8.676;2022-10-01T05:57:07;2.50;;;2.30;;
1649;SDS011;822;53.670;8.676;2022-10-01T05:59:34;2.00;;;1.90;;
1649;SDS011;822;53.670;8.676;2022-10-01T06:02:01;2.10;;;1.90;;
1649;SDS011;822;53.670;8.676;2022-10-01T06:04:29;2.87;;;2.67;;
1649;SDS011;822;53.670;8.676;2022-10-01T06:06:56;2.40;;;1.70;;
1649;SDS011;822;53.670;8.676;2022-10-01T06:09:23;2.27;;;1.73;;
1649;SDS011;822;53.670;8.676;2022-10-01T06:11:52;1.60;;;1.50;;
1649;SDS011;822;53.670;8.676;2022-10-01T06:14:19;1.97;;;1.87;;
1649;SDS011;822;53.670;8.676;2022-10-01T06:16:46;2.00;;;1.90;;
1649;SDS011;822;53.670;8.676;2022-10-01T06:19:12;1.10;;;1.00;;
1649;SDS011;822;53.670;8.676;2022-10-01T06:21:41;2.13;;;2.03;;
1649;SDS011;822;53.670;8.676;2022-10-01T06:24:08;1.40;;;1.30;;
1649;SDS011;822;53.670;8.676;2022-10-01T06:26:35;1.60;;;1.50;;
1649;SDS011;822;53.670;8.676;2022-10-01T06:29:06;1.60;;;1.50;;
1649;SDS011;822;53.670;8.676;2022-10-01T06:31:36;2.03;;;1.93;;
1649;SDS011;822;53.670;8.676;2022-10-01T06:34:03;2.10;;;1.50;;
1649;SDS011;822;53.670;8.676;2022-10-01T06:36:34;1.60;;;1.50;;
1649;SDS011;822;53.670;8.676;2022-10-01T06:39:01;1.50;;;1.40;;
1649;SDS011;822;53.670;8.676;2022-10-01T06:41:28;1.27;;;1.17;;
1649;SDS011;822;53.670;8.676;2022-10-01T06:43:54;1.10;;;1.07;;
1649;SDS011;822;53.670;8.676;2022-10-01T06:46:23;5.20;;;1.70;;
1649;SDS011;822;53.670;8.676;2022-10-01T06:48:49;1.63;;;1.53;;
1649;SDS011;822;53.670;8.676;2022-10-01T06:51:16;1.93;;;1.63;;
1649;SDS011;822;53.670;8.676;2022-10-01T06:54:04;1.40;;;1.30;;
1649;SDS011;822;53.670;8.676;2022-10-01T06:56:29;1.37;;;1.27;;
1649;SDS011;822;53.670;8.676;2022-10-01T06:58:56;1.07;;;1.07;;
1649;SDS011;822;53.670;8.676;2022-10-01T07:01:24;1.40;;;1.30;;
1649;SDS011;822;53.670;8.676;2022-10-01T07:03:51;1.23;;;1.13;;
1649;SDS011;822;53.670;8.676;2022-10-01T07:06:21;1.40;;;1.30;;
1649;SDS011;822;53.670;8.676;2022-10-01T07:08:48;1.43;;;1.43;;
1649;SDS011;822;53.670;8.676;2022-10-01T07:11:15;1.57;;;1.47;;
1649;SDS011;822;53.670;8.676;2022-10-01T07:13:43;1.20;;;1.10;;
1649;SDS011;822;53.670;8.676;2022-10-01T07:16:10;1.57;;;1.47;;
1649;SDS011;822;53.670;8.676;2022-10-01T07:18:38;4.30;;;1.70;;
1649;SDS011;822;53.670;8.676;2022-10-01T07:21:05;1.63;;;1.47;;
1649;SDS011;822;53.670;8.676;2022-10-01T07:23:31;2.80;;;1.57;;
1649;SDS011;822;53.670;8.676;2022-10-01T07:25:59;1.70;;;1.60;;
1649;SDS011;822;53.670;8.676;2022-10-01T07:28:25;2.50;;;2.30;;
1649;SDS011;822;53.670;8.676;2022-10-01T07:30:56;1.90;;;1.80;;
1649;SDS011;822;53.670;8.676;2022-10-01T07:33:24;2.10;;;2.00;;
1649;SDS011;822;53.670;8.676;2022-10-01T07:35:52;2.27;;;2.07;;
1649;SDS011;822;53.670;8.676;2022-10-01T07:38:22;2.23;;;2.13;;
1649;SDS011;822;53.670;8.676;2022-10-01T07:40:49;2.13;;;2.03;;
1649;SDS011;822;53.670;8.676;2022-10-01T07:43:16;3.00;;;2.80;;
1649;SDS011;822;53.670;8.676;2022-10-01T07:45:43;1.90;;;1.80;;
1649;SDS011;822;53.670;8.676;2022-10-01T07:48:11;2.17;;;1.97;;
1649;SDS011;822;53.670;8.676;2022-10-01T07:50:52;2.50;;;2.30;;
1649;SDS011;822;53.670;8.676;2022-10-01T07:53:19;1.90;;;1.80;;
1649;SDS011;822;53.670;8.676;2022-10-01T07:55:46;2.40;;;2.30;;
1649;SDS011;822;53.670;8.676;2022-10-01T07:58:12;2.67;;;2.47;;
1649;SDS011;822;53.670;8.676;2022-10-01T08:00:39;2.87;;;2.53;;
1649;SDS011;822;53.670;8.676;2022-10-01T08:03:07;3.13;;;2.87;;
1649;SDS011;822;53.670;8.676;2022-10-01T08:05:36;2.40;;;1.97;;
1649;SDS011;822;53.670;8.676;2022-10-01T08:08:08;1.87;;;1.77;;
1649;SDS011;822;53.670;8.676;2022-10-01T08:10:35;1.70;;;1.43;;
1649;SDS011;822;53.670;8.676;2022-10-01T08:13:04;1.97;;;1.80;;
1649;SDS011;822;53.670;8.676;2022-10-01T08:15:33;1.70;;;1.60;;
1649;SDS011;822;53.670;8.676;2022-10-01T08:18:00;2.20;;;2.00;;
1649;SDS011;822;53.670;8.676;2022-10-01T08:20:27;2.30;;;2.10;;
1649;SDS011;822;53.670;8.676;2022-10-01T08:22:59;3.10;;;2.40;;
1649;SDS011;822;53.670;8.676;2022-10-01T08:25:28;2.10;;;1.90;;
1649;SDS011;822;53.670;8.676;2022-10-01T08:27:55;2.50;;;2.17;;
1649;SDS011;822;53.670;8.676;2022-10-01T08:30:22;3.47;;;2.67;;
1649;SDS011;822;53.670;8.676;2022-10-01T08:32:52;2.27;;;2.17;;
1649;SDS011;822;53.670;8.676;2022-10-01T08:35:19;5.23;;;4.60;;
1649;SDS011;822;53.670;8.676;2022-10-01T08:37:46;2.20;;;2.00;;
1649;SDS011;822;53.670;8.676;2022-10-01T08:40:13;2.53;;;2.33;;
1649;SDS011;822;53.670;8.676;2022-10-01T08:42:45;3.07;;;2.77;;
1649;SDS011;822;53.670;8.676;2022-10-01T08:45:18;2.63;;;2.43;;
1649;SDS011;822;53.670;8.676;2022-10-01T08:47:49;2.13;;;1.93;;
1649;SDS011;822;53.670;8.676;2022-10-01T08:50:20;2.00;;;1.83;;
1649;SDS011;822;53.670;8.676;2022-10-01T08:52:55;2.27;;;2.07;;
1649;SDS011;822;53.670;8.676;2022-10-01T08:55:28;1.97;;;1.77;;
1649;SDS011;822;53.670;8.676;2022-10-01T08:58:02;2.13;;;1.93;;
1649;SDS011;822;53.670;8.676;2022-10-01T09:00:30;1.60;;;1.50;;
1649;SDS011;822;53.670;8.676;2022-10-01T09:02:59;2.23;;;2.03;;
1649;SDS011;822;53.670;8.676;2022-10-01T09:05:32;2.50;;;2.30;;
1649;SDS011;822;53.670;8.676;2022-10-01T09:08:08;3.30;;;3.00;;
1649;SDS011;822;53.670;8.676;2022-10-01T09:10:42;2.03;;;1.93;;
1649;SDS011;822;53.670;8.676;2022-10-01T09:16:14;2.20;;;2.00;;
1649;SDS011;822;53.670;8.676;2022-10-01T09:18:47;2.43;;;2.23;;
1649;SDS011;822;53.670;8.676;2022-10-01T09:21:18;1.60;;;1.50;;
1649;SDS011;822;53.670;8.676;2022-10-01T09:23:52;2.20;;;2.10;;
1649;SDS011;822;53.670;8.676;2022-10-01T09:26:24;1.30;;;1.20;;
1649;SDS011;822;53.670;8.676;2022-10-01T09:28:55;1.63;;;1.53;;
1649;SDS011;822;53.670;8.676;2022-10-01T09:31:25;1.07;;;0.97;;
1649;SDS011;822;53.670;8.676;2022-10-01T09:33:54;0.80;;;0.80;;
1649;SDS011;822;53.670;8.676;2022-10-01T09:36:25;0.73;;;0.73;;
1649;SDS011;822;53.670;8.676;2022-10-01T09:38:58;0.70;;;0.70;;
1649;SDS011;822;53.670;8.676;2022-10-01T09:41:29;1.03;;;0.87;;
1649;SDS011;822;53.670;8.676;2022-10-01T09:43:57;0.70;;;0.70;;
1649;SDS011;822;53.670;8.676;2022-10-01T09:46:25;0.90;;;0.90;;
1649;SDS011;822;53.670;8.676;2022-10-01T09:48:55;0.80;;;0.80;;
1649;SDS011;822;53.670;8.676;2022-10-01T09:51:24;2.57;;;0.77;;
1649;SDS011;822;53.670;8.676;2022-10-01T09:53:58;0.73;;;0.73;;
1649;SDS011;822;53.670;8.676;2022-10-01T09:56:28;0.70;;;0.70;;
1649;SDS011;822;53.670;8.676;2022-10-01T09:59:05;1.20;;;0.63;;
1649;SDS011;822;53.670;8.676;2022-10-01T10:01:38;1.03;;;0.60;;
1649;SDS011;822;53.670;8.676;2022-10-01T10:04:08;1.43;;;0.70;;
1649;SDS011;822;53.670;8.676;2022-10-01T10:06:35;1.17;;;0.53;;
1649;SDS011;822;53.670;8.676;2022-10-01T10:09:10;0.50;;;0.50;;
1649;SDS011;822;53.670;8.676;2022-10-01T10:11:40;0.50;;;0.50;;
1649;SDS011;822;53.670;8.676;2022-10-01T10:14:13;0.73;;;0.73;;
1649;SDS011;822;53.670;8.676;2022-10-01T10:16:44;0.57;;;0.40;;
1649;SDS011;822;53.670;8.676;2022-10-01T10:19:14;0.50;;;0.50;;
1649;SDS011;822;53.670;8.676;2022-10-01T10:21:48;0.80;;;0.43;;
1649;SDS011;822;53.670;8.676;2022-10-01T10:24:24;0.50;;;0.50;;
1649;SDS011;822;53.670;8.676;2022-10-01T10:26:52;0.60;;;0.60;;
1649;SDS011;822;53.670;8.676;2022-10-01T10:29:25;1.23;;;0.60;;
1649;SDS011;822;53.670;8.676;2022-10-01T10:31:54;0.77;;;0.77;;
1649;SDS011;822;53.670;8.676;2022-10-01T10:34:22;1.23;;;0.50;;
1649;SDS011;822;53.670;8.676;2022-10-01T10:36:55;0.40;;;0.40;;
1649;SDS011;822;53.670;8.676;2022-10-01T10:39:23;0.80;;;0.40;;
1649;SDS011;822;53.670;8.676;2022-10-01T10:41:52;1.13;;;0.40;;
1649;SDS011;822;53.670;8.676;2022-10-01T10:44:20;0.50;;;0.40;;
1649;SDS011;822;53.670;8.676;2022-10-01T10:46:50;0.40;;;0.30;;
1649;SDS011;822;53.670;8.676;2022-10-01T10:49:18;0.43;;;0.40;;
1649;SDS011;822;53.670;8.676;2022-10-01T10:51:49;1.30;;;0.60;;
1649;SDS011;822;53.670;8.676;2022-10-01T10:54:22;0.40;;;0.40;;
1649;SDS011;822;53.670;8.676;2022-10-01T10:56:55;0.40;;;0.37;;
1649;SDS011;822;53.670;8.676;2022-10-01T10:59:27;0.90;;;0.40;;
1649;SDS011;822;53.670;8.676;2022-10-01T11:01:59;0.40;;;0.30;;
1649;SDS011;822;53.670;8.676;2022-10-01T11:04:30;0.77;;;0.47;;
1649;SDS011;822;53.670;8.676;2022-10-01T11:07:08;0.40;;;0.30;;
1649;SDS011;822;53.670;8.676;2022-10-01T11:09:51;1.27;;;0.50;;
1649;SDS011;822;53.670;8.676;2022-10-01T11:12:37;0.50;;;0.40;;
1649;SDS011;822;53.670;8.676;2022-10-01T11:15:15;0.50;;;0.50;;
1649;SDS011;822;53.670;8.676;2022-10-01T11:18:02;0.40;;;0.30;;
1649;SDS011;822;53.670;8.676;2022-10-01T11:20:44;0.50;;;0.30;;
1649;SDS011;822;53.670;8.676;2022-10-01T11:23:29;1.27;;;0.50;;
1649;SDS011;822;53.670;8.676;2022-10-01T11:26:14;1.23;;;0.50;;
1649;SDS011;822;53.670;8.676;2022-10-01T11:28:49;0.50;;;0.30;;
1649;SDS011;822;53.670;8.676;2022-10-01T11:31:29;0.40;;;0.30;;
1649;SDS011;822;53.670;8.676;2022-10-01T11:34:06;1.03;;;0.40;;
1649;SDS011;822;53.670;8.676;2022-10-01T11:36:51;0.60;;;0.30;;
1649;SDS011;822;53.670;8.676;2022-10-01T11:39:26;0.90;;;0.47;;
1649;SDS011;822;53.670;8.676;2022-10-01T11:41:55;0.40;;;0.37;;
1649;SDS011;822;53.670;8.676;2022-10-01T11:44:25;0.40;;;0.30;;
1649;SDS011;822;53.670;8.676;2022-10-01T11:46:55;0.70;;;0.30;;
1649;SDS011;822;53.670;8.676;2022-10-01T11:52:27;0.43;;;0.33;;
1649;SDS011;822;53.670;8.676;2022-10-01T11:55:00;0.40;;;0.40;;
1649;SDS011;822;53.670;8.676;2022-10-01T11:57:46;0.50;;;0.40;;
1649;SDS011;822;53.670;8.676;2022-10-01T12:00:35;0.50;;;0.50;;
1649;SDS011;822;53.670;8.676;2022-10-01T12:03:03;0.33;;;0.30;;
1649;SDS011;822;53.670;8.676;2022-10-01T12:05:33;0.40;;;0.40;;
1649;SDS011;822;53.670;8.676;2022-10-01T12:08:02;0.70;;;0.50;;
1649;SDS011;822;53.670;8.676;2022-10-01T12:10:35;0.80;;;0.60;;
1649;SDS011;822;53.670;8.676;2022-10-01T12:13:05;0.30;;;0.30;;
1649;SDS011;822;53.670;8.676;2022-10-01T12:15:37;0.93;;;0.57;;
1649;SDS011;822;53.670;8.676;2022-10-01T12:18:10;0.50;;;0.40;;
1649;SDS011;822;53.670;8.676;2022-10-01T12:20:41;1.13;;;0.40;;
1649;SDS011;822;53.670;8.676;2022-10-01T12:23:11;0.40;;;0.40;;
1649;SDS011;822;53.670;8.676;2022-10-01T12:25:42;0.80;;;0.33;;
1649;SDS011;822;53.670;8.676;2022-10-01T12:28:16;0.40;;;0.40;;
1649;SDS011;822;53.670;8.676;2022-10-01T12:30:48;4.10;;;0.40;;
1649;SDS011;822;53.670;8.676;2022-10-01T12:33:33;0.43;;;0.43;;
1649;SDS011;822;53.670;8.676;2022-10-01T12:36:10;0.40;;;0.30;;
1649;SDS011;822;53.670;8.676;2022-10-01T12:38:44;0.30;;;0.30;;
1649;SDS011;822;53.670;8.676;2022-10-01T12:41:22;0.30;;;0.20;;
1649;SDS011;822;53.670;8.676;2022-10-01T12:43:59;0.70;;;0.30;;
1649;SDS011;822;53.670;8.676;2022-10-01T12:46:44;0.40;;;0.30;;
1649;SDS011;822;53.670;8.676;2022-10-01T12:49:17;0.40;;;0.20;;
1649;SDS011;822;53.670;8.676;2022-10-01T12:51:50;0.73;;;0.40;;
1649;SDS011;822;53.670;8.676;2022-10-01T12:54:30;1.20;;;0.30;;
1649;SDS011;822;53.670;8.676;2022-10-01T12:57:09;0.40;;;0.20;;
1649;SDS011;822;53.670;8.676;2022-10-01T12:59:47;0.57;;;0.40;;
1649;SDS011;822;53.670;8.676;2022-10-01T13:02:28;0.60;;;0.40;;
1649;SDS011;822;53.670;8.676;2022-10-01T13:05:11;0.40;;;0.30;;
1649;SDS011;822;53.670;8.676;2022-10-01T13:07:47;0.53;;;0.30;;
1649;SDS011;822;53.670;8.676;2022-10-01T13:10:24;0.40;;;0.30;;
1649;SDS011;822;53.670;8.676;2022-10-01T13:12:58;0.40;;;0.20;;
1649;SDS011;822;53.670;8.676;2022-10-01T13:15:28;0.40;;;0.30;;
1649;SDS011;822;53.670;8.676;2022-10-01T13:18:00;0.40;;;0.30;;
1649;SDS011;822;53.670;8.676;2022-10-01T13:20:32;0.40;;;0.20;;
1649;SDS011;822;53.670;8.676;2022-10-01T13:23:07;0.70;;;0.40;;
1649;SDS011;822;53.670;8.676;2022-10-01T13:25:39;0.50;;;0.30;;
1649;SDS011;822;53.670;8.676;2022-10-01T13:28:11;0.40;;;0.20;;
1649;SDS011;822;53.670;8.676;2022-10-01T13:30:45;0.40;;;0.23;;
1649;SDS011;822;53.670;8.676;2022-10-01T13:33:20;0.60;;;0.30;;
1649;SDS011;822;53.670;8.676;2022-10-01T13:35:52;0.83;;;0.40;;
1649;SDS011;822;53.670;8.676;2022-10-01T13:38:27;0.40;;;0.30;;
1649;SDS011;822;53.670;8.676;2022-10-01T13:40:56;0.40;;;0.30;;
1649;SDS011;822;53.670;8.676;2022-10-01T13:43:24;0.50;;;0.30;;
1649;SDS011;822;53.670;8.676;2022-10-01T13:45:51;0.40;;;0.20;;
1649;SDS011;822;53.670;8.676;2022-10-01T13:48:19;0.40;;;0.33;;
1649;SDS011;822;53.670;8.676;2022-10-01T13:50:52;0.50;;;0.40;;
1649;SDS011;822;53.670;8.676;2022-10-01T13:53:21;0.40;;;0.30;;
1649;SDS011;822;53.670;8.676;2022-10-01T13:55:51;0.60;;;0.30;;
1649;SDS011;822;53.670;8.676;2022-10-01T13:58:23;1.40;;;0.40;;
1649;SDS011;822;53.670;8.676;2022-10-01T14:00:58;0.43;;;0.37;;
1649;SDS011;822;53.670;8.676;2022-10-01T14:03:29;0.40;;;0.30;;
1649;SDS011;822;53.670;8.676;2022-10-01T14:06:14;0.50;;;0.40;;
1649;SDS011;822;53.670;8.676;2022-10-01T14:08:45;0.40;;;0.30;;
1649;SDS011;822;53.670;8.676;2022-10-01T14:11:16;0.97;;;0.30;;
1649;SDS011;822;53.670;8.676;2022-10-01T14:14:08;0.60;;;0.40;;
1649;SDS011;822;53.670;8.676;2022-10-01T14:16:55;1.07;;;0.40;;
1649;SDS011;822;53.670;8.676;2022-10-01T14:19:23;0.47;;;0.30;;
1649;SDS011;822;53.670;8.676;2022-10-01T14:21:54;0.60;;;0.30;;
1649;SDS011;822;53.670;8.676;2022-10-01T14:24:29;0.77;;;0.40;;
1649;SDS011;822;53.670;8.676;2022-10-01T14:27:03;0.80;;;0.40;;
1649;SDS011;822;53.670;8.676;2022-10-01T14:29:39;0.50;;;0.30;;
1649;SDS011;822;53.670;8.676;2022-10-01T14:32:17;0.47;;;0.40;;
1649;SDS011;822;53.670;8.676;2022-10-01T14:34:52;0.40;;;0.30;;
1649;SDS011;822;53.670;8.676;2022-10-01T14:37:22;0.60;;;0.50;;
1649;SDS011;822;53.670;8.676;2022-10-01T14:40:01;1.60;;;0.33;;
1649;SDS011;822;53.670;8.676;2022-10-01T14:42:36;0.80;;;0.30;;
1649;SDS011;822;53.670;8.676;2022-10-01T14:45:12;1.13;;;0.40;;
1649;SDS011;822;53.670;8.676;2022-10-01T14:47:40;0.40;;;0.30;;
1649;SDS011;822;53.670;8.676;2022-10-01T14:50:08;0.50;;;0.40;;
1649;SDS011;822;53.670;8.676;2022-10-01T14:52:35;0.40;;;0.30;;
1649;SDS011;822;53.670;8.676;2022-10-01T14:55:05;0.40;;;0.30;;
1649;SDS011;822;53.670;8.676;2022-10-01T14:57:46;0.40;;;0.40;;
1649;SDS011;822;53.670;8.676;2022-10-01T15:00:15;1.10;;;1.00;;
1649;SDS011;822;53.670;8.676;2022-10-01T15:02:43;0.73;;;0.57;;
1649;SDS011;822;53.670;8.676;2022-10-01T15:05:16;3.87;;;1.93;;
1649;SDS011;822;53.670;8.676;2022-10-01T15:07:46;1.00;;;0.80;;
1649;SDS011;822;53.670;8.676;2022-10-01T15:10:15;0.63;;;0.50;;
1649;SDS011;822;53.670;8.676;2022-10-01T15:12:42;0.83;;;0.40;;
1649;SDS011;822;53.670;8.676;2022-10-01T15:15:18;0.50;;;0.40;;
1649;SDS011;822;53.670;8.676;2022-10-01T15:17:47;0.63;;;0.50;;
1649;SDS011;822;53.670;8.676;2022-10-01T15:20:14;1.47;;;0.70;;
1649;SDS011;822;53.670;8.676;2022-10-01T15:22:42;0.70;;;0.40;;
1649;SDS011;822;53.670;8.676;2022-10-01T15:25:14;0.57;;;0.40;;
1649;SDS011;822;53.670;8.676;2022-10-01T15:27:43;1.50;;;0.70;;
1649;SDS011;822;53.670;8.676;2022-10-01T15:30:11;0.70;;;0.70;;
1649;SDS011;822;53.670;8.676;2022-10-01T15:32:43;0.63;;;0.63;;
1649;SDS011;822;53.670;8.676;2022-10-01T15:35:11;2.03;;;0.67;;
1649;SDS011;822;53.670;8.676;2022-10-01T15:37:39;0.87;;;0.40;;
1649;SDS011;822;53.670;8.676;2022-10-01T15:40:11;0.40;;;0.40;;
1649;SDS011;822;53.670;8.676;2022-10-01T15:42:54;0.40;;;0.30;;
1649;SDS011;822;53.670;8.676;2022-10-01T15:45:37;0.40;;;0.30;;
1649;SDS011;822;53.670;8.676;2022-10-01T15:48:19;0.80;;;0.47;;
1649;SDS011;822;53.670;8.676;2022-10-01T15:50:55;0.50;;;0.40;;
1649;SDS011;822;53.670;8.676;2022-10-01T15:53:24;1.53;;;0.70;;
1649;SDS011;822;53.670;8.676;2022-10-01T15:55:53;0.40;;;0.40;;
1649;SDS011;822;53.670;8.676;2022-10-01T15:58:23;3.53;;;0.67;;
1649;SDS011;822;53.670;8.676;2022-10-01T16:00:55;0.40;;;0.40;;
1649;SDS011;822;53.670;8.676;2022-10-01T16:03:27;0.43;;;0.43;;